Time;durP1;ratioP1;P1;durP2;ratioP2;P2;SDS_P1;SDS_P2;PMS_P1;PMS_P2;Temp;Humidity;BMP_temperature;BMP_pressure;BME280_temperature;BME280_humidity;BME280_pressure;Samples;Min_cycle;Max_cycle;Signal;HPM_P1;HPM_P2
2021/12/19 00:01:11;;;;;;;3.60;3.33;;;2.50;99.90;;;;;;5084888;28;20652;-55
2021/12/19 00:03:59;;;;;;;3.10;2.90;;;2.50;99.90;;;;;;5084917;28;20672;-55
2021/12/19 00:09:37;;;;;;;2.63;2.42;;;2.50;99.90;;;;;;5084286;28;20656;-56
2021/12/19 00:12:17;;;;;;;2.33;2.22;;;2.60;99.90;;;;;;5084672;28;20676;-56
2021/12/19 00:14:56;;;;;;;2.65;2.45;;;2.60;99.90;;;;;;5145424;27;20661;-55
2021/12/19 00:17:36;;;;;;;2.58;2.38;;;2.60;99.90;;;;;;5146391;27;20550;-56
2021/12/19 00:20:16;;;;;;;2.25;1.90;;;2.50;99.90;;;;;;5083613;28;21022;-55
2021/12/19 00:22:56;;;;;;;2.20;2.00;;;2.60;99.90;;;;;;5085184;28;20567;-56
2021/12/19 00:25:36;;;;;;;2.38;2.17;;;2.50;99.90;;;;;;5083858;28;20656;-55
2021/12/19 00:28:15;;;;;;;2.63;2.42;;;2.60;99.90;;;;;;5105452;27;20681;-55
2021/12/19 00:30:56;;;;;;;2.20;2.10;;;2.60;99.90;;;;;;5084562;28;20671;-56
2021/12/19 00:33:37;;;;;;;2.08;1.98;;;2.60;99.90;;;;;;5084600;27;20551;-56
2021/12/19 00:36:17;;;;;;;2.33;2.22;;;2.60;99.90;;;;;;5145827;27;20653;-55
2021/12/19 00:38:56;;;;;;;1.80;1.70;;;2.60;99.90;;;;;;5104872;27;20681;-55
2021/12/19 00:41:36;;;;;;;1.92;1.83;;;2.60;99.90;;;;;;5125861;27;21037;-55
2021/12/19 00:44:22;;;;;;;2.03;1.92;;;2.60;99.90;;;;;;5146302;27;20978;-55
2021/12/19 00:47:07;;;;;;;1.80;1.70;;;2.60;99.90;;;;;;5125750;27;20945;-56
2021/12/19 00:49:47;;;;;;;1.90;1.80;;;2.60;99.90;;;;;;5125265;27;21041;-56
2021/12/19 00:52:27;;;;;;;2.13;2.03;;;2.60;99.90;;;;;;5104880;27;20607;-56
2021/12/19 00:55:08;;;;;;;1.90;1.80;;;2.60;99.90;;;;;;5124878;27;20661;-56
2021/12/19 00:57:47;;;;;;;2.00;1.90;;;2.60;99.90;;;;;;5125607;27;20679;-55
2021/12/19 01:00:28;;;;;;;2.35;2.22;;;2.60;99.90;;;;;;5084549;27;20558;-55
2021/12/19 01:03:08;;;;;;;3.08;2.88;;;2.60;99.90;;;;;;5084809;27;20692;-55
2021/12/19 01:05:48;;;;;;;3.00;2.50;;;2.60;99.90;;;;;;5145734;27;20669;-55
2021/12/19 01:08:27;;;;;;;2.00;1.90;;;2.60;99.90;;;;;;5084610;28;21022;-55
2021/12/19 01:11:07;;;;;;;2.10;2.00;;;2.60;99.90;;;;;;5146491;27;20531;-55
2021/12/19 01:13:47;;;;;;;1.80;1.70;;;2.60;99.90;;;;;;5084461;28;20680;-56
2021/12/19 01:16:27;;;;;;;1.75;1.65;;;2.60;99.90;;;;;;5145692;27;20669;-55
2021/12/19 01:19:07;;;;;;;1.50;1.40;;;2.60;99.90;;;;;;5125403;27;20540;-55
2021/12/19 01:21:47;;;;;;;1.70;1.60;;;2.60;99.90;;;;;;5105037;27;20549;-56
2021/12/19 01:24:26;;;;;;;1.77;1.67;;;2.60;99.90;;;;;;5083485;28;21211;-56
2021/12/19 01:27:06;;;;;;;1.60;1.50;;;2.60;99.90;;;;;;5085940;27;20547;-56
2021/12/19 01:29:46;;;;;;;1.45;1.35;;;2.60;99.90;;;;;;5125603;27;20645;-56
2021/12/19 01:32:26;;;;;;;1.55;1.45;;;2.60;99.90;;;;;;5084956;27;20563;-55
2021/12/19 01:35:08;;;;;;;1.40;1.30;;;2.70;99.90;;;;;;5145464;27;21086;-55
2021/12/19 01:37:48;;;;;;;1.40;1.30;;;2.60;99.90;;;;;;5085145;27;20544;-55
2021/12/19 01:40:27;;;;;;;1.30;1.20;;;2.60;99.90;;;;;;5126032;27;20532;-56
2021/12/19 01:43:07;;;;;;;1.30;1.20;;;2.60;99.90;;;;;;5146429;27;21075;-55
2021/12/19 01:45:47;;;;;;;1.20;1.20;;;2.60;99.90;;;;;;5104623;27;21190;-56
2021/12/19 01:48:27;;;;;;;1.20;1.20;;;2.60;99.90;;;;;;5146336;27;20591;-55
2021/12/19 01:51:06;;;;;;;1.20;1.10;;;2.60;99.90;;;;;;5105057;27;20669;-55
2021/12/19 01:53:46;;;;;;;0.90;0.90;;;2.60;99.90;;;;;;5145845;27;20692;-55
2021/12/19 01:56:26;;;;;;;0.95;0.95;;;2.60;99.90;;;;;;5084228;27;20695;-55
2021/12/19 01:59:07;;;;;;;0.93;0.93;;;2.60;99.90;;;;;;5084263;28;21193;-55
2021/12/19 02:01:51;;;;;;;0.88;0.88;;;2.60;99.90;;;;;;5125870;27;20813;-56
2021/12/19 02:04:33;;;;;;;1.08;1.08;;;2.60;99.90;;;;;;5084121;28;20675;-56
2021/12/19 02:07:13;;;;;;;1.23;1.13;;;2.60;99.90;;;;;;5146887;27;20672;-55
2021/12/19 02:09:51;;;;;;;0.90;0.90;;;2.60;99.90;;;;;;5084300;27;20556;-55
2021/12/19 02:12:31;;;;;;;1.20;1.17;;;2.60;99.90;;;;;;5084677;27;20560;-55
2021/12/19 02:15:14;;;;;;;1.08;1.08;;;2.60;99.90;;;;;;5101341;27;20553;-55
2021/12/19 02:17:57;;;;;;;1.20;1.20;;;2.60;99.90;;;;;;5125269;27;20535;-55
2021/12/19 02:20:40;;;;;;;0.90;0.90;;;2.60;99.90;;;;;;5083716;28;20671;-56
2021/12/19 02:23:22;;;;;;;1.60;1.50;;;2.60;99.90;;;;;;5146500;27;20670;-55
2021/12/19 02:26:02;;;;;;;0.98;0.98;;;2.60;99.90;;;;;;5084227;27;21064;-55
2021/12/19 02:28:41;;;;;;;1.42;1.20;;;2.60;99.90;;;;;;5084495;27;20562;-56
2021/12/19 02:31:22;;;;;;;1.23;1.13;;;2.60;99.90;;;;;;5146452;27;20654;-55
2021/12/19 02:34:05;;;;;;;1.45;1.35;;;2.60;99.90;;;;;;5085095;27;20540;-55
2021/12/19 02:36:55;;;;;;;1.42;1.33;;;2.60;99.90;;;;;;5121593;27;20597;-55
2021/12/19 02:40:09;;;;;;;1.00;1.00;;;2.60;99.90;;;;;;5084819;28;20859;-55
2021/12/19 02:48:43;;;;;;;1.15;1.08;;;2.60;99.90;;;;;;5153810;27;20681;-56
2021/12/19 02:51:24;;;;;;;1.00;1.00;;;2.60;99.90;;;;;;5084929;28;20551;-55
2021/12/19 02:54:05;;;;;;;1.17;1.10;;;2.60;99.90;;;;;;5104249;27;20677;-56
2021/12/19 02:56:45;;;;;;;1.40;1.30;;;2.60;99.90;;;;;;5083686;27;21088;-55
2021/12/19 02:59:24;;;;;;;1.23;1.15;;;2.60;99.90;;;;;;5083760;27;20563;-55
2021/12/19 03:02:04;;;;;;;1.42;1.38;;;2.60;99.90;;;;;;5125334;27;20552;-55
2021/12/19 03:04:54;;;;;;;1.40;1.30;;;2.60;99.90;;;;;;5084115;27;20540;-55
2021/12/19 03:07:39;;;;;;;1.30;1.30;;;2.60;99.90;;;;;;5125844;27;20548;-56
2021/12/19 03:11:04;;;;;;;1.10;1.10;;;2.60;99.90;;;;;;5084697;27;20528;-55
2021/12/19 03:17:57;;;;;;;1.00;1.00;;;2.60;99.90;;;;;;5105273;27;20573;-56
2021/12/19 03:19:45;;;;;;;0.80;0.80;;;2.50;99.90;;;;;;5145777;27;20658;-56
2021/12/19 03:22:25;;;;;;;0.85;0.85;;;2.60;99.90;;;;;;5100120;27;21051;-55
2021/12/19 03:25:06;;;;;;;0.82;0.82;;;2.60;99.90;;;;;;5124149;27;20544;-56
2021/12/19 03:27:45;;;;;;;0.85;0.85;;;2.60;99.90;;;;;;5084578;27;20547;-55
2021/12/19 03:30:25;;;;;;;0.80;0.80;;;2.60;99.90;;;;;;5146178;27;20599;-56
2021/12/19 03:33:05;;;;;;;0.90;0.90;;;2.60;99.90;;;;;;5084999;28;20968;-56
2021/12/19 03:35:44;;;;;;;0.77;0.77;;;2.60;99.90;;;;;;5104258;27;21043;-55
2021/12/19 03:38:25;;;;;;;0.95;0.95;;;2.60;99.90;;;;;;5125947;27;20540;-56
2021/12/19 03:41:14;;;;;;;1.23;1.13;;;2.60;99.90;;;;;;5144983;27;20662;-56
2021/12/19 03:43:53;;;;;;;0.93;0.90;;;2.60;99.90;;;;;;5104442;27;20677;-55
2021/12/19 03:46:35;;;;;;;0.73;0.73;;;2.60;99.90;;;;;;5144931;27;21016;-55
2021/12/19 03:49:17;;;;;;;0.82;0.70;;;2.60;99.90;;;;;;5105184;27;20674;-55
2021/12/19 03:51:56;;;;;;;1.40;0.70;;;2.60;99.90;;;;;;5085338;28;20684;-56
2021/12/19 03:54:36;;;;;;;0.80;0.80;;;2.60;99.90;;;;;;5084350;27;20539;-55
2021/12/19 03:57:16;;;;;;;0.90;0.90;;;2.60;99.90;;;;;;5084900;28;20551;-55
2021/12/19 03:59:56;;;;;;;0.80;0.80;;;2.60;99.90;;;;;;5083197;28;20664;-55
2021/12/19 04:02:35;;;;;;;0.75;0.75;;;2.60;99.90;;;;;;5153182;27;20874;-56
2021/12/19 04:05:15;;;;;;;0.77;0.77;;;2.60;99.90;;;;;;5104389;27;20557;-55
2021/12/19 04:07:55;;;;;;;0.82;0.82;;;2.60;99.90;;;;;;5147190;27;20611;-55
2021/12/19 04:10:35;;;;;;;1.15;0.88;;;2.70;99.90;;;;;;5084780;28;20668;-56
2021/12/19 04:13:15;;;;;;;1.48;0.80;;;2.70;99.90;;;;;;5084990;28;20676;-56
2021/12/19 04:15:55;;;;;;;0.80;0.80;;;2.70;99.90;;;;;;5084299;28;21021;-55
2021/12/19 04:18:34;;;;;;;2.90;1.00;;;2.70;99.90;;;;;;5084537;27;20910;-55
2021/12/19 04:21:14;;;;;;;0.77;0.77;;;2.70;99.90;;;;;;5084128;27;20552;-56
2021/12/19 04:23:54;;;;;;;1.10;1.10;;;2.70;99.90;;;;;;5146164;27;20863;-55
2021/12/19 04:26:34;;;;;;;1.10;1.10;;;2.70;99.90;;;;;;5124814;27;20540;-55
2021/12/19 04:29:14;;;;;;;1.10;1.10;;;2.70;99.90;;;;;;5084860;28;20564;-55
2021/12/19 04:31:54;;;;;;;1.20;1.10;;;2.70;99.90;;;;;;5084743;28;20656;-55
2021/12/19 04:34:33;;;;;;;1.17;1.10;;;2.70;99.90;;;;;;5084166;28;20636;-55
2021/12/19 04:37:34;;;;;;;1.17;1.17;;;2.80;99.90;;;;;;5085011;28;20676;-55
2021/12/19 04:40:15;;;;;;;1.75;1.65;;;2.70;99.90;;;;;;5084415;28;20652;-55
2021/12/19 04:54:54;;;;;;;1.63;1.52;;;2.70;99.90;;;;;;5145509;27;21034;-55
2021/12/19 04:57:39;;;;;;;1.83;1.73;;;2.70;99.90;;;;;;5085327;27;20535;-55
2021/12/19 05:00:29;;;;;;;1.67;1.58;;;2.70;99.90;;;;;;5085173;28;20656;-56
2021/12/19 05:03:19;;;;;;;1.45;1.35;;;2.80;99.90;;;;;;5125638;27;20556;-56
2021/12/19 05:06:04;;;;;;;1.35;1.27;;;2.70;99.90;;;;;;5082057;27;20904;-56
2021/12/19 05:14:52;;;;;;;1.75;1.65;;;2.80;99.90;;;;;;5083250;28;20692;-55
2021/12/19 05:17:32;;;;;;;1.70;1.60;;;2.80;99.90;;;;;;5078403;27;20559;-56
2021/12/19 05:20:15;;;;;;;1.40;1.40;;;2.80;99.90;;;;;;5122229;27;21108;-55
2021/12/19 05:23:00;;;;;;;3.08;1.50;;;2.70;99.90;;;;;;5062873;28;20713;-55
2021/12/19 05:25:39;;;;;;;1.63;1.52;;;2.80;99.90;;;;;;5144218;27;20538;-55
2021/12/19 05:28:19;;;;;;;1.70;1.60;;;2.80;99.90;;;;;;5084102;27;20557;-56
2021/12/19 05:30:59;;;;;;;2.05;1.95;;;2.80;99.90;;;;;;5144543;27;20650;-55
2021/12/19 05:33:38;;;;;;;1.73;1.63;;;2.80;99.90;;;;;;5125788;27;20568;-55
2021/12/19 05:45:14;;;;;;;1.98;1.88;;;2.80;99.90;;;;;;5146056;27;20531;-55
2021/12/19 05:47:53;;;;;;;1.55;1.45;;;2.80;99.90;;;;;;5084855;28;21064;-56
2021/12/19 05:50:34;;;;;;;4.13;1.80;;;2.80;99.90;;;;;;5125659;27;20532;-55
2021/12/19 05:53:15;;;;;;;2.00;1.90;;;2.80;99.90;;;;;;5105116;27;20686;-56
2021/12/19 05:55:56;;;;;;;1.80;1.70;;;2.80;99.90;;;;;;5145748;27;21358;-55
2021/12/19 05:58:35;;;;;;;1.50;1.40;;;2.80;99.90;;;;;;5084285;27;20565;-55
2021/12/19 06:01:14;;;;;;;1.80;1.70;;;2.80;99.90;;;;;;5084343;27;21095;-55
2021/12/19 06:03:54;;;;;;;2.05;1.70;;;2.80;99.90;;;;;;5084527;27;20543;-55
2021/12/19 06:06:34;;;;;;;1.98;1.88;;;2.80;99.90;;;;;;5145426;27;20669;-55
2021/12/19 06:09:14;;;;;;;1.77;1.67;;;2.80;99.90;;;;;;5083883;27;20547;-56
2021/12/19 06:11:54;;;;;;;2.13;1.85;;;2.80;99.90;;;;;;5085049;27;20528;-55
2021/12/19 06:14:34;;;;;;;3.95;1.80;;;2.80;99.90;;;;;;5084019;28;20546;-56
2021/12/19 06:17:13;;;;;;;1.83;1.73;;;2.80;99.90;;;;;;5084532;27;20528;-55
2021/12/19 06:19:53;;;;;;;2.00;1.90;;;2.80;99.90;;;;;;5125098;27;20779;-55
2021/12/19 06:22:33;;;;;;;1.60;1.50;;;2.80;99.90;;;;;;5084793;27;20556;-55
2021/12/19 06:25:13;;;;;;;1.50;1.40;;;2.80;99.90;;;;;;5084041;28;21042;-55
2021/12/19 06:27:53;;;;;;;1.60;1.50;;;2.80;99.90;;;;;;5085254;28;20667;-55
2021/12/19 06:30:32;;;;;;;1.67;1.58;;;2.80;99.90;;;;;;5145992;27;20526;-56
2021/12/19 06:33:13;;;;;;;2.00;1.90;;;2.80;99.90;;;;;;5146330;27;20665;-55
2021/12/19 06:35:52;;;;;;;1.95;1.85;;;2.80;99.90;;;;;;5083650;28;20668;-55
2021/12/19 06:38:32;;;;;;;1.90;1.80;;;2.80;99.90;;;;;;5084489;28;20569;-55
2021/12/19 06:41:12;;;;;;;1.90;1.80;;;2.80;99.90;;;;;;5084094;28;20652;-56
2021/12/19 06:43:52;;;;;;;2.45;1.73;;;2.80;99.90;;;;;;5062972;27;20991;-56
2021/12/19 06:46:32;;;;;;;1.70;1.60;;;2.80;99.90;;;;;;5082329;27;21170;-56
2021/12/19 06:49:12;;;;;;;1.67;1.58;;;2.80;99.90;;;;;;5084657;27;20723;-55
2021/12/19 06:51:51;;;;;;;2.45;2.28;;;2.80;99.90;;;;;;5152013;27;21051;-55
2021/12/19 06:54:32;;;;;;;2.20;2.10;;;2.80;99.90;;;;;;5119039;27;21153;-55
2021/12/19 06:57:11;;;;;;;1.85;1.70;;;2.80;99.90;;;;;;5124458;27;20548;-56
2021/12/19 06:59:50;;;;;;;2.28;2.17;;;2.80;99.90;;;;;;5141475;27;20669;-55
2021/12/19 07:02:30;;;;;;;2.20;2.10;;;2.80;99.90;;;;;;5085300;28;20687;-55
2021/12/19 07:05:11;;;;;;;3.00;2.80;;;2.80;99.90;;;;;;5145548;27;21026;-55
2021/12/19 07:07:50;;;;;;;2.28;2.17;;;2.80;99.90;;;;;;5085060;27;20890;-55
2021/12/19 07:10:30;;;;;;;2.20;2.10;;;2.80;99.90;;;;;;5079103;28;20685;-55
2021/12/19 07:13:10;;;;;;;2.33;2.13;;;2.80;99.90;;;;;;5117976;27;20694;-55
2021/12/19 07:15:51;;;;;;;2.70;2.50;;;2.80;99.90;;;;;;5079470;28;20687;-55
2021/12/19 07:18:31;;;;;;;3.20;3.00;;;2.80;99.90;;;;;;5083963;28;20683;-55
2021/12/19 07:21:11;;;;;;;2.30;2.20;;;2.80;99.90;;;;;;5084093;27;20539;-55
2021/12/19 07:23:51;;;;;;;4.00;3.70;;;2.80;99.90;;;;;;5123959;27;21096;-54
2021/12/19 07:26:30;;;;;;;3.40;3.20;;;2.80;99.90;;;;;;5082547;27;20573;-55
2021/12/19 07:29:10;;;;;;;2.78;2.63;;;2.80;99.90;;;;;;5084473;27;21008;-55
2021/12/19 07:31:50;;;;;;;2.42;2.22;;;2.80;99.90;;;;;;5084562;28;20543;-55
2021/12/19 07:34:32;;;;;;;2.70;2.50;;;2.80;99.90;;;;;;5103653;27;20559;-55
2021/12/19 07:37:11;;;;;;;2.85;2.65;;;2.80;99.90;;;;;;5105466;27;21186;-55
2021/12/19 07:39:58;;;;;;;2.50;2.30;;;2.80;99.90;;;;;;5084250;27;21079;-55
2021/12/19 07:42:37;;;;;;;2.58;2.45;;;2.80;99.90;;;;;;5104885;27;21075;-55
2021/12/19 07:45:18;;;;;;;2.20;2.10;;;2.80;99.90;;;;;;5083309;28;20672;-55
2021/12/19 07:47:59;;;;;;;2.78;2.40;;;2.90;99.90;;;;;;5084993;27;20547;-55
2021/12/19 07:50:39;;;;;;;2.78;2.55;;;2.90;99.90;;;;;;5084136;28;20675;-55
2021/12/19 07:53:18;;;;;;;2.30;2.20;;;2.90;99.90;;;;;;5084918;28;21208;-55
2021/12/19 07:55:59;;;;;;;2.95;2.75;;;2.90;99.90;;;;;;5104326;27;20653;-55
2021/12/19 07:58:38;;;;;;;2.90;2.70;;;2.90;99.90;;;;;;5083735;27;20535;-55
2021/12/19 08:01:18;;;;;;;2.60;2.40;;;2.90;99.90;;;;;;5104335;27;20541;-55
2021/12/19 08:03:58;;;;;;;3.08;2.88;;;2.90;99.90;;;;;;5084708;27;20559;-55
2021/12/19 08:06:37;;;;;;;2.55;2.35;;;3.00;99.90;;;;;;5084394;28;21193;-55
2021/12/19 08:09:25;;;;;;;4.72;4.32;;;3.00;99.90;;;;;;5082238;27;21143;-55
2021/12/19 08:12:04;;;;;;;2.90;2.70;;;3.00;99.90;;;;;;5125484;27;20556;-56
2021/12/19 08:14:43;;;;;;;3.13;2.92;;;3.00;99.90;;;;;;5144627;27;20545;-55
2021/12/19 08:17:23;;;;;;;3.00;2.80;;;3.10;99.90;;;;;;5084785;27;20543;-55
2021/12/19 08:20:09;;;;;;;3.47;3.28;;;3.10;99.90;;;;;;5082609;28;20687;-55
2021/12/19 08:22:49;;;;;;;2.88;2.67;;;3.10;99.90;;;;;;5081736;28;20693;-55
2021/12/19 08:25:29;;;;;;;4.38;4.05;;;3.10;99.90;;;;;;5082849;27;20544;-55
2021/12/19 08:28:09;;;;;;;2.88;2.67;;;3.20;99.90;;;;;;5078445;28;20684;-55
2021/12/19 08:30:50;;;;;;;2.38;2.28;;;3.20;99.90;;;;;;5084879;28;20601;-55
2021/12/19 08:33:30;;;;;;;2.83;2.63;;;3.20;99.90;;;;;;5070882;27;20541;-55
2021/12/19 08:36:10;;;;;;;3.00;2.80;;;3.20;99.90;;;;;;5083537;27;20540;-55
2021/12/19 08:38:50;;;;;;;2.72;2.60;;;3.20;99.90;;;;;;5084251;28;20846;-55
2021/12/19 08:41:29;;;;;;;2.63;2.42;;;3.30;99.90;;;;;;5143116;27;21011;-55
2021/12/19 08:44:09;;;;;;;3.08;2.47;;;3.30;99.90;;;;;;5110079;27;20552;-55
2021/12/19 08:46:49;;;;;;;3.53;2.30;;;3.30;99.90;;;;;;5084390;27;20559;-55
2021/12/19 08:49:29;;;;;;;2.67;2.47;;;3.40;99.90;;;;;;5154318;27;20529;-55
2021/12/19 08:52:10;;;;;;;2.53;2.33;;;3.40;99.90;;;;;;5083913;28;20699;-55
2021/12/19 08:54:49;;;;;;;2.47;2.28;;;3.50;99.90;;;;;;5141973;27;20543;-55
2021/12/19 08:57:29;;;;;;;2.45;2.35;;;3.50;99.90;;;;;;5102249;27;20546;-55
2021/12/19 09:00:11;;;;;;;2.72;2.53;;;3.50;99.90;;;;;;5100730;27;20537;-55
2021/12/19 09:02:55;;;;;;;2.80;2.60;;;3.50;99.90;;;;;;5071204;28;20694;-55
2021/12/19 09:05:34;;;;;;;2.35;2.20;;;3.60;99.90;;;;;;5103735;27;20546;-55
2021/12/19 09:08:14;;;;;;;2.65;2.53;;;3.60;99.90;;;;;;5081118;28;20700;-55
2021/12/19 09:10:56;;;;;;;2.30;2.10;;;3.60;99.90;;;;;;5080365;28;20679;-55
2021/12/19 09:13:35;;;;;;;3.10;2.90;;;3.60;99.90;;;;;;5130035;27;20568;-55
2021/12/19 09:16:16;;;;;;;2.30;2.20;;;3.60;99.90;;;;;;5122291;27;20571;-55
2021/12/19 09:18:55;;;;;;;2.63;2.50;;;3.60;99.90;;;;;;5083981;28;20668;-55
2021/12/19 09:21:35;;;;;;;3.50;3.30;;;3.70;99.90;;;;;;5104297;27;20957;-55
2021/12/19 09:24:15;;;;;;;2.80;2.60;;;3.70;99.90;;;;;;5102925;27;20542;-55
2021/12/19 09:26:55;;;;;;;2.53;2.42;;;3.70;99.90;;;;;;5084134;28;20652;-55
2021/12/19 09:29:35;;;;;;;2.90;2.70;;;3.70;99.90;;;;;;5075012;27;20561;-55
2021/12/19 09:32:14;;;;;;;2.47;2.20;;;3.70;99.90;;;;;;5084773;27;20687;-55
2021/12/19 09:34:54;;;;;;;2.58;2.45;;;3.70;99.90;;;;;;5104277;27;20574;-55
2021/12/19 09:37:35;;;;;;;2.67;2.47;;;3.70;99.90;;;;;;5119509;27;20916;-55
2021/12/19 09:40:22;;;;;;;2.55;2.35;;;3.70;99.90;;;;;;5144266;27;20669;-55
2021/12/19 09:43:05;;;;;;;3.13;2.92;;;3.80;99.90;;;;;;5145809;27;20697;-55
2021/12/19 09:45:45;;;;;;;2.58;2.47;;;3.80;99.90;;;;;;5103828;27;20596;-55
2021/12/19 09:48:24;;;;;;;3.08;2.88;;;3.80;99.90;;;;;;5104307;27;20697;-54
2021/12/19 09:51:04;;;;;;;2.42;2.33;;;3.80;99.90;;;;;;5145272;27;20542;-56
2021/12/19 09:53:44;;;;;;;2.75;2.55;;;3.80;99.90;;;;;;5130330;27;20713;-55
2021/12/19 09:56:24;;;;;;;2.50;2.40;;;3.80;99.90;;;;;;5082798;27;21026;-55
2021/12/19 09:59:09;;;;;;;2.15;2.05;;;3.80;99.90;;;;;;5083975;27;21096;-55
2021/12/19 10:01:50;;;;;;;2.00;1.90;;;3.90;99.90;;;;;;5145413;27;20665;-55
2021/12/19 10:04:33;;;;;;;2.20;2.10;;;3.90;99.90;;;;;;5083493;27;21022;-55
2021/12/19 10:07:17;;;;;;;2.45;2.30;;;3.90;99.90;;;;;;5104058;27;21166;-55
2021/12/19 10:10:00;;;;;;;2.30;2.20;;;3.90;99.90;;;;;;5082405;28;21011;-55
2021/12/19 10:15:42;;;;;;;2.70;2.50;;;3.90;99.90;;;;;;5082982;28;21426;-56
2021/12/19 10:18:21;;;;;;;2.60;2.50;;;3.90;99.90;;;;;;5122476;27;20532;-55
2021/12/19 10:21:01;;;;;;;2.92;2.72;;;3.90;99.90;;;;;;5145449;27;20705;-55
2021/12/19 10:23:42;;;;;;;3.08;2.88;;;3.90;99.90;;;;;;5073473;28;21232;-55
2021/12/19 10:26:22;;;;;;;3.00;2.80;;;3.90;99.90;;;;;;5144536;27;20676;-55
2021/12/19 10:29:02;;;;;;;2.85;2.70;;;3.90;99.90;;;;;;5143829;27;20822;-55
2021/12/19 10:31:42;;;;;;;3.15;2.95;;;3.90;99.90;;;;;;5103891;27;20537;-56
2021/12/19 10:34:23;;;;;;;3.75;3.50;;;3.90;99.90;;;;;;5103494;27;20542;-55
2021/12/19 10:37:05;;;;;;;3.28;3.08;;;3.90;99.90;;;;;;5082425;27;20423;-55
2021/12/19 10:39:45;;;;;;;3.20;3.00;;;3.90;99.90;;;;;;5082846;28;20676;-55
2021/12/19 10:42:25;;;;;;;3.45;3.15;;;3.80;99.90;;;;;;5083061;27;20547;-55
2021/12/19 10:48:17;;;;;;;3.08;2.88;;;3.80;99.90;;;;;;5083389;27;21053;-56
2021/12/19 10:51:01;;;;;;;3.30;3.10;;;3.90;99.90;;;;;;5144777;27;21206;-55
2021/12/19 10:53:42;;;;;;;2.80;2.70;;;3.90;99.90;;;;;;5083169;28;21204;-55
2021/12/19 10:56:24;;;;;;;3.88;3.67;;;4.00;99.90;;;;;;5101902;27;20669;-55
2021/12/19 10:59:05;;;;;;;3.40;3.20;;;4.00;99.90;;;;;;5084646;27;20663;-55
2021/12/19 11:01:47;;;;;;;4.00;3.70;;;3.90;99.90;;;;;;5104796;27;20650;-55
2021/12/19 11:04:29;;;;;;;3.97;3.67;;;3.80;99.90;;;;;;5083976;27;20541;-55
2021/12/19 11:07:09;;;;;;;3.75;3.50;;;3.90;99.90;;;;;;5105282;27;20657;-55
2021/12/19 11:09:49;;;;;;;4.53;4.22;;;3.90;99.90;;;;;;5145895;27;20647;-55
2021/12/19 11:12:29;;;;;;;4.03;3.80;;;3.90;99.90;;;;;;5162119;27;20537;-56
2021/12/19 11:15:09;;;;;;;3.80;3.50;;;3.90;99.90;;;;;;5124613;27;20900;-55
2021/12/19 11:17:48;;;;;;;4.15;3.85;;;3.90;99.90;;;;;;5146610;27;20542;-55
2021/12/19 11:20:28;;;;;;;4.25;3.95;;;3.90;99.90;;;;;;5145677;27;20968;-55
2021/12/19 11:23:08;;;;;;;3.92;3.63;;;3.90;99.90;;;;;;5104928;27;20557;-55
2021/12/19 11:25:48;;;;;;;4.88;4.57;;;3.90;99.90;;;;;;5104410;27;20546;-55
2021/12/19 11:28:28;;;;;;;4.18;3.88;;;3.90;99.90;;;;;;5084888;28;20675;-55
2021/12/19 11:31:08;;;;;;;3.60;3.38;;;3.90;99.90;;;;;;5125464;27;21198;-55
2021/12/19 11:34:00;;;;;;;4.20;3.90;;;3.80;99.90;;;;;;5145991;27;20677;-55
2021/12/19 11:36:43;;;;;;;5.05;4.72;;;3.90;99.90;;;;;;5084372;28;20659;-55
2021/12/19 11:39:27;;;;;;;4.32;4.03;;;3.90;99.90;;;;;;5085428;28;20659;-53
2021/12/19 11:42:14;;;;;;;4.68;4.38;;;4.00;99.90;;;;;;5084534;28;20539;-55
2021/12/19 11:45:08;;;;;;;4.25;3.95;;;4.00;99.90;;;;;;5084199;28;20667;-55
2021/12/19 11:47:53;;;;;;;4.30;4.00;;;4.00;99.90;;;;;;5145906;27;21210;-55
2021/12/19 11:50:34;;;;;;;4.65;4.35;;;4.00;99.90;;;;;;5084074;28;20660;-55
2021/12/19 11:53:26;;;;;;;5.38;4.97;;;4.00;99.90;;;;;;5084626;28;20692;-55
2021/12/19 11:56:14;;;;;;;5.53;5.13;;;4.00;99.90;;;;;;5084440;27;20907;-55
2021/12/19 11:58:55;;;;;;;4.78;4.38;;;3.90;99.90;;;;;;5084772;27;20547;-55
2021/12/19 12:01:35;;;;;;;5.53;5.13;;;3.90;99.90;;;;;;5084836;28;20664;-55
2021/12/19 12:04:17;;;;;;;5.72;5.32;;;3.90;99.90;;;;;;5064364;28;20559;-55
2021/12/19 12:06:59;;;;;;;5.60;5.20;;;3.90;99.90;;;;;;5085228;28;20672;-55
2021/12/19 12:09:56;;;;;;;4.93;4.63;;;3.90;99.90;;;;;;5084432;28;20596;-55
2021/12/19 12:12:50;;;;;;;5.03;4.72;;;3.90;99.90;;;;;;5163354;27;20549;-55
2021/12/19 12:15:34;;;;;;;5.85;5.45;;;3.90;99.90;;;;;;5084115;27;20544;-55
2021/12/19 12:18:30;;;;;;;5.22;4.82;;;3.80;99.90;;;;;;5084952;28;20695;-55
2021/12/19 12:21:29;;;;;;;5.15;4.75;;;3.80;99.90;;;;;;5104870;27;20556;-55
2021/12/19 12:24:18;;;;;;;5.43;5.03;;;3.90;99.90;;;;;;5125436;27;20707;-55
2021/12/19 12:27:03;;;;;;;5.10;4.70;;;3.90;99.90;;;;;;5084865;28;21038;-55
2021/12/19 12:29:42;;;;;;;5.65;5.25;;;3.90;99.90;;;;;;5084346;27;20543;-55
2021/12/19 12:32:22;;;;;;;4.40;4.10;;;3.90;99.90;;;;;;5105196;27;20561;-55
2021/12/19 12:35:03;;;;;;;5.13;4.82;;;3.90;99.90;;;;;;5104745;27;20562;-55
2021/12/19 12:37:43;;;;;;;4.70;4.40;;;3.90;99.90;;;;;;5105422;27;20669;-55
2021/12/19 12:40:29;;;;;;;4.32;4.03;;;3.90;99.90;;;;;;5145671;27;20600;-55
2021/12/19 12:43:12;;;;;;;3.95;3.65;;;3.90;99.90;;;;;;5125402;27;20552;-55
2021/12/19 12:46:18;;;;;;;4.05;3.85;;;3.90;99.90;;;;;;5136153;27;20542;-55
2021/12/19 12:49:00;;;;;;;3.88;3.60;;;3.90;99.90;;;;;;5084364;27;20667;-55
2021/12/19 12:51:42;;;;;;;2.80;2.67;;;3.90;99.90;;;;;;5084076;28;20671;-55
2021/12/19 12:54:26;;;;;;;3.65;3.45;;;3.80;99.90;;;;;;5103987;27;20583;-55
2021/12/19 12:57:09;;;;;;;3.60;3.30;;;3.80;99.90;;;;;;5084381;28;20660;-55
2021/12/19 12:59:48;;;;;;;3.60;3.33;;;3.90;99.90;;;;;;5144074;27;20546;-55
2021/12/19 13:02:42;;;;;;;4.00;3.80;;;3.90;99.90;;;;;;5082631;27;20562;-55
2021/12/19 13:05:21;;;;;;;3.67;3.47;;;3.80;99.90;;;;;;5082928;27;20887;-55
2021/12/19 13:08:00;;;;;;;4.05;3.75;;;3.80;99.90;;;;;;5105063;27;20550;-55
2021/12/19 13:10:41;;;;;;;3.45;3.25;;;3.70;99.90;;;;;;5145853;27;20680;-55
2021/12/19 13:13:26;;;;;;;3.65;3.45;;;3.70;99.90;;;;;;5082800;28;20703;-55
2021/12/19 13:16:06;;;;;;;3.85;3.53;;;3.70;99.90;;;;;;5104663;27;21214;-55
2021/12/19 13:18:46;;;;;;;3.40;3.20;;;3.70;99.90;;;;;;5139374;27;21041;-55
2021/12/19 13:21:26;;;;;;;4.13;3.83;;;3.70;99.90;;;;;;5151534;27;20586;-55
2021/12/19 13:24:06;;;;;;;3.92;3.72;;;3.70;99.90;;;;;;5144964;27;20562;-55
2021/12/19 13:26:46;;;;;;;3.92;3.63;;;3.70;99.90;;;;;;5065416;28;20710;-55
2021/12/19 13:29:26;;;;;;;4.00;3.80;;;3.70;99.90;;;;;;5125434;27;20661;-55
2021/12/19 13:32:19;;;;;;;3.90;3.60;;;3.70;99.90;;;;;;5084423;28;20672;-55
2021/12/19 13:35:02;;;;;;;4.25;3.90;;;3.60;99.90;;;;;;5082853;28;20659;-55
2021/12/19 13:37:53;;;;;;;4.45;4.15;;;3.70;99.90;;;;;;5066827;28;20670;-55
2021/12/19 13:40:35;;;;;;;4.22;3.92;;;3.70;99.90;;;;;;5145695;27;20534;-55
2021/12/19 13:43:17;;;;;;;4.35;4.05;;;3.70;99.90;;;;;;5072118;28;21001;-55
2021/12/19 13:45:59;;;;;;;6.15;4.38;;;3.70;99.90;;;;;;5083735;28;21197;-55
2021/12/19 13:48:39;;;;;;;4.57;4.28;;;3.70;99.90;;;;;;5124520;27;20547;-55
2021/12/19 13:51:22;;;;;;;4.25;3.97;;;3.70;99.90;;;;;;5145383;27;20823;-55
2021/12/19 13:54:03;;;;;;;4.75;4.45;;;3.70;99.90;;;;;;5122724;27;20954;-55
2021/12/19 13:56:42;;;;;;;4.68;4.38;;;3.70;99.90;;;;;;5104754;27;20538;-55
2021/12/19 13:59:24;;;;;;;4.63;4.32;;;3.60;99.90;;;;;;5104597;27;20542;-55
2021/12/19 14:02:11;;;;;;;5.07;4.78;;;3.70;99.90;;;;;;5104641;27;21078;-55
2021/12/19 14:04:50;;;;;;;4.53;4.22;;;3.60;99.90;;;;;;5082844;27;20539;-55
2021/12/19 14:07:31;;;;;;;4.85;4.55;;;3.70;99.90;;;;;;5084716;27;20570;-55
2021/12/19 14:10:21;;;;;;;5.30;4.90;;;3.60;99.90;;;;;;5145287;27;20685;-55
2021/12/19 14:13:09;;;;;;;4.75;4.45;;;3.60;99.90;;;;;;5057534;27;21027;-55
2021/12/19 14:15:54;;;;;;;4.63;4.32;;;3.60;99.90;;;;;;5083787;27;20543;-55
2021/12/19 14:18:40;;;;;;;4.88;4.57;;;3.60;99.90;;;;;;5084436;27;20557;-55
2021/12/19 14:21:34;;;;;;;5.55;5.05;;;3.60;99.90;;;;;;5083942;27;20913;-55
2021/12/19 14:24:35;;;;;;;5.40;5.07;;;3.60;99.90;;;;;;5124821;27;21440;-55
2021/12/19 14:27:17;;;;;;;5.00;4.70;;;3.60;99.90;;;;;;5126154;27;20938;-55
2021/12/19 14:30:02;;;;;;;5.53;5.10;;;3.60;99.90;;;;;;5145462;27;20649;-55
2021/12/19 14:32:49;;;;;;;4.88;4.50;;;3.60;99.90;;;;;;5145390;27;21385;-55
2021/12/19 14:35:30;;;;;;;4.93;4.53;;;3.50;99.90;;;;;;5145051;27;20649;-55
2021/12/19 14:38:14;;;;;;;4.70;4.40;;;3.50;99.90;;;;;;5084562;28;20680;-55
2021/12/19 14:40:59;;;;;;;4.90;4.57;;;3.50;99.90;;;;;;5083882;28;20668;-55
2021/12/19 14:43:39;;;;;;;4.90;4.60;;;3.50;99.90;;;;;;5068769;28;21218;-55
2021/12/19 14:46:27;;;;;;;5.07;4.78;;;3.50;99.90;;;;;;5083760;27;22247;-55
2021/12/19 14:49:11;;;;;;;4.60;4.25;;;3.50;99.90;;;;;;5124648;27;20927;-55
2021/12/19 14:51:59;;;;;;;5.43;5.03;;;3.50;99.90;;;;;;5095931;27;20667;-55
2021/12/19 14:54:39;;;;;;;4.97;4.68;;;3.50;99.90;;;;;;5083876;28;20669;-55
2021/12/19 14:57:19;;;;;;;4.63;4.28;;;3.50;99.90;;;;;;5105234;27;20674;-55
2021/12/19 14:59:58;;;;;;;5.45;5.05;;;3.50;99.90;;;;;;5104113;27;20542;-55